Time;durP1;ratioP1;P1;durP2;ratioP2;P2;SDS_P1;SDS_P2;PMS_P1;PMS_P2;Temp;Humidity;BMP_temperature;BMP_pressure;BME280_temperature;BME280_humidity;BME280_pressure;Samples;Min_cycle;Max_cycle;Signal;HPM_P1;HPM_P2
2021/08/10 00:01:57;;;;;;;5.43;4.93;;;22.80;71.00;;;;;;6193293;23;20008;-91
2021/08/10 00:04:26;;;;;;;10.13;5.43;;;22.80;71.40;;;;;;6194437;23;20008;-90
2021/08/10 00:06:54;;;;;;;5.18;4.68;;;22.70;72.10;;;;;;6194360;23;20001;-91
2021/08/10 00:09:20;;;;;;;6.80;5.93;;;22.70;72.50;;;;;;6192985;23;20036;-91
2021/08/10 00:11:51;;;;;;;6.63;5.90;;;22.70;73.30;;;;;;6192738;23;20001;-90
2021/08/10 00:14:20;;;;;;;6.30;5.55;;;22.60;74.10;;;;;;6193301;23;20020;-90
2021/08/10 00:16:45;;;;;;;7.55;6.50;;;22.60;74.70;;;;;;6194461;23;20001;-90
2021/08/10 00:19:16;;;;;;;7.13;6.07;;;22.50;75.50;;;;;;6193168;23;20048;-91
2021/08/10 00:21:45;;;;;;;6.50;5.72;;;22.40;76.10;;;;;;6192293;23;20005;-90
2021/08/10 00:24:11;;;;;;;7.45;6.25;;;22.30;76.60;;;;;;6193506;23;20421;-90
2021/08/10 00:26:46;;;;;;;6.35;5.75;;;22.30;77.50;;;;;;6192156;23;20024;-91
2021/08/10 00:29:11;;;;;;;6.55;5.85;;;22.30;77.80;;;;;;6192692;23;20080;-91
2021/08/10 00:31:44;;;;;;;6.50;5.85;;;22.10;78.00;;;;;;6191935;23;20012;-91
2021/08/10 00:34:13;;;;;;;6.05;5.43;;;22.10;78.40;;;;;;6193794;23;20008;-91
2021/08/10 00:36:51;;;;;;;6.60;5.53;;;22.00;78.30;;;;;;6192053;23;20001;-91
2021/08/10 00:39:26;;;;;;;6.07;5.40;;;22.00;79.30;;;;;;6194206;23;20059;-90
2021/08/10 00:41:57;;;;;;;7.05;6.32;;;21.90;79.30;;;;;;6192048;23;20061;-90
2021/08/10 00:44:23;;;;;;;6.72;5.70;;;21.80;81.00;;;;;;6192059;23;20005;-91
2021/08/10 00:46:51;;;;;;;7.88;5.47;;;21.80;80.70;;;;;;6191034;23;20001;-91
2021/08/10 00:49:19;;;;;;;6.78;6.05;;;21.70;80.90;;;;;;6191922;23;20008;-90
2021/08/10 00:51:50;;;;;;;6.57;5.97;;;21.60;81.60;;;;;;6192126;23;20095;-90
2021/08/10 00:54:19;;;;;;;5.93;5.32;;;21.60;82.40;;;;;;6190205;23;19997;-92
2021/08/10 00:56:46;;;;;;;11.93;6.43;;;21.60;82.40;;;;;;6193645;23;20056;-91
2021/08/10 00:59:14;;;;;;;6.63;5.50;;;21.50;82.60;;;;;;6190742;23;20005;-91
2021/08/10 01:01:43;;;;;;;8.40;7.20;;;21.50;83.00;;;;;;6192883;23;20124;-91
2021/08/10 01:04:18;;;;;;;7.32;6.40;;;21.40;84.80;;;;;;6191085;23;19997;-91
2021/08/10 01:06:58;;;;;;;7.22;6.53;;;21.40;84.90;;;;;;6190919;23;20030;-91
2021/08/10 01:09:41;;;;;;;7.15;6.25;;;21.30;85.40;;;;;;6192788;23;20005;-90
2021/08/10 01:12:18;;;;;;;8.23;7.38;;;21.30;86.50;;;;;;6191714;23;20009;-91
2021/08/10 01:15:19;;;;;;;8.77;7.88;;;21.20;89.20;;;;;;6193432;23;20005;-91
2021/08/10 01:18:19;;;;;;;7.88;7.18;;;21.10;90.20;;;;;;6188351;23;20020;-91
2021/08/10 01:21:07;;;;;;;11.57;8.13;;;21.10;90.80;;;;;;6190258;23;20005;-91
2021/08/10 01:23:39;;;;;;;9.02;7.68;;;21.10;91.20;;;;;;6191500;23;20061;-91
2021/08/10 01:26:13;;;;;;;11.13;7.38;;;21.00;91.30;;;;;;6196773;23;20040;-90
2021/08/10 01:28:52;;;;;;;7.72;6.93;;;21.00;91.10;;;;;;6199797;23;20008;-90
2021/08/10 01:31:37;;;;;;;;;;;;;;;;;;;;;
2021/08/10 01:34:30;;;;;;;8.27;7.47;;;20.90;91.60;;;;;;6201185;23;20021;-90
2021/08/10 01:36:59;;;;;;;9.88;8.43;;;20.90;91.90;;;;;;6198688;23;20008;-90
2021/08/10 01:39:33;;;;;;;8.57;7.78;;;20.80;92.10;;;;;;6193395;23;20088;-91
2021/08/10 01:42:05;;;;;;;8.95;8.10;;;20.90;92.40;;;;;;6192795;23;20001;-91
2021/08/10 01:44:33;;;;;;;9.82;8.27;;;20.80;92.70;;;;;;6191673;23;20008;-90
2021/08/10 01:47:03;;;;;;;8.07;7.28;;;20.80;92.60;;;;;;6190270;23;19997;-91
2021/08/10 01:49:35;;;;;;;9.00;8.10;;;20.80;92.70;;;;;;6192289;23;20009;-91
2021/08/10 01:52:07;;;;;;;9.25;8.32;;;20.80;93.10;;;;;;6193862;23;20313;-91
2021/08/10 01:54:38;;;;;;;9.38;8.40;;;20.70;93.20;;;;;;6191820;23;20013;-91
2021/08/10 01:57:04;;;;;;;8.82;7.93;;;20.70;93.50;;;;;;6193218;23;20088;-91
2021/08/10 01:59:34;;;;;;;8.68;7.88;;;20.70;93.50;;;;;;6193376;23;20013;-91
2021/08/10 02:02:00;;;;;;;8.68;7.55;;;20.70;93.60;;;;;;6191696;23;20005;-91
2021/08/10 02:04:34;;;;;;;8.73;7.93;;;20.60;93.50;;;;;;6192424;23;20032;-91
2021/08/10 02:07:07;;;;;;;8.80;7.88;;;20.60;93.60;;;;;;6194271;23;20032;-91
2021/08/10 02:09:46;;;;;;;11.57;7.55;;;20.70;93.60;;;;;;6193658;23;20001;-91
2021/08/10 02:12:22;;;;;;;10.27;8.20;;;20.70;93.60;;;;;;6194603;23;20005;-90
2021/08/10 02:14:49;;;;;;;8.77;7.88;;;20.70;93.70;;;;;;6193781;23;19998;-91
2021/08/10 02:17:21;;;;;;;10.27;8.15;;;20.70;93.40;;;;;;6191990;23;20040;-91
2021/08/10 02:19:49;;;;;;;7.50;6.80;;;20.70;93.30;;;;;;6193750;23;20001;-92
2021/08/10 02:22:19;;;;;;;7.47;6.78;;;20.70;93.30;;;;;;6195023;23;20005;-91
2021/08/10 02:24:58;;;;;;;8.95;8.05;;;20.70;93.20;;;;;;6194452;23;20048;-90
2021/08/10 02:27:57;;;;;;;9.25;7.70;;;20.80;93.50;;;;;;6195040;23;20032;-90
2021/08/10 02:30:30;;;;;;;8.27;7.40;;;20.80;93.40;;;;;;6195082;23;19997;-91
2021/08/10 02:32:59;;;;;;;8.77;7.90;;;20.70;93.20;;;;;;6193649;23;20013;-91
2021/08/10 02:35:32;;;;;;;8.63;7.80;;;20.70;93.20;;;;;;6196194;23;20523;-91
2021/08/10 02:38:10;;;;;;;8.25;7.45;;;20.70;93.20;;;;;;6194622;23;20040;-91
2021/08/10 02:40:40;;;;;;;8.88;7.82;;;20.60;93.40;;;;;;6193644;23;20082;-91
2021/08/10 02:43:09;;;;;;;8.38;7.57;;;20.60;93.40;;;;;;6193228;23;20040;-90
2021/08/10 02:45:38;;;;;;;8.70;7.90;;;20.60;93.50;;;;;;6196544;23;20008;-91
2021/08/10 02:48:04;;;;;;;9.10;8.15;;;20.50;93.70;;;;;;6194812;23;20009;-91
2021/08/10 02:50:33;;;;;;;11.68;8.88;;;20.50;94.10;;;;;;6192467;23;20420;-91
2021/08/10 02:52:59;;;;;;;9.07;8.23;;;20.40;94.20;;;;;;6194315;23;20002;-91
2021/08/10 02:55:30;;;;;;;8.57;7.78;;;20.40;94.60;;;;;;6194443;23;20344;-91
2021/08/10 02:58:07;;;;;;;8.90;8.10;;;20.30;94.60;;;;;;6196192;23;20009;-91
2021/08/10 03:00:56;;;;;;;9.63;8.57;;;20.30;95.00;;;;;;6193444;23;19997;-91
2021/08/10 03:03:30;;;;;;;9.35;8.35;;;20.30;95.10;;;;;;6193640;23;20011;-91
2021/08/10 03:06:00;;;;;;;9.60;8.55;;;20.30;95.20;;;;;;6193247;23;20002;-91
2021/08/10 03:08:33;;;;;;;10.48;9.48;;;20.30;95.50;;;;;;6193101;23;20001;-91
2021/08/10 03:11:00;;;;;;;11.15;10.15;;;20.30;95.80;;;;;;6194462;23;20024;-91
2021/08/10 03:13:32;;;;;;;10.48;9.38;;;20.30;96.30;;;;;;6194231;23;20444;-91
2021/08/10 03:15:59;;;;;;;9.27;8.38;;;20.30;96.50;;;;;;6196000;23;20028;-91
2021/08/10 03:18:38;;;;;;;10.13;9.23;;;20.30;96.50;;;;;;6193852;23;20013;-90
2021/08/10 03:21:09;;;;;;;10.63;9.63;;;20.30;96.70;;;;;;6195634;23;20097;-91
2021/08/10 03:23:39;;;;;;;10.60;9.60;;;20.30;96.80;;;;;;6195828;23;20016;-90
2021/08/10 03:26:10;;;;;;;10.10;9.10;;;20.30;96.90;;;;;;6229319;23;20019;-90
2021/08/10 03:28:41;;;;;;;10.32;9.25;;;20.30;97.00;;;;;;6234987;23;20030;-90
2021/08/10 03:31:09;;;;;;;10.60;9.55;;;20.40;97.10;;;;;;6234685;23;20012;-90
2021/08/10 03:33:36;;;;;;;10.05;9.05;;;20.40;97.00;;;;;;6236000;23;20000;-90
2021/08/10 03:36:04;;;;;;;10.13;9.13;;;20.40;96.90;;;;;;6234297;23;20046;-91
2021/08/10 03:38:38;;;;;;;10.35;9.35;;;20.40;97.00;;;;;;6230662;23;20038;-91
2021/08/10 03:41:07;;;;;;;10.13;9.23;;;20.40;97.20;;;;;;6233689;23;20004;-90
2021/08/10 03:43:37;;;;;;;11.52;10.43;;;20.40;97.10;;;;;;6233596;23;20023;-91
2021/08/10 03:46:06;;;;;;;10.60;9.70;;;20.50;97.40;;;;;;6233062;23;20000;-90
2021/08/10 03:48:51;;;;;;;;;;;;;;;;;;;;;
2021/08/10 03:51:17;;;;;;;11.77;10.63;;;20.50;97.80;;;;;;6259325;23;20027;-91
2021/08/10 03:53:43;;;;;;;9.68;8.77;;;20.60;97.60;;;;;;6234448;23;20023;-91
2021/08/10 03:56:11;;;;;;;10.90;9.82;;;20.60;97.60;;;;;;6230559;23;20301;-91
2021/08/10 03:58:41;;;;;;;11.23;9.50;;;20.60;97.60;;;;;;6229805;23;20335;-90
2021/08/10 04:01:10;;;;;;;10.07;9.07;;;20.60;97.60;;;;;;6230685;23;20047;-91
2021/08/10 04:03:44;;;;;;;10.60;9.55;;;20.60;97.60;;;;;;6231681;23;20023;-91
2021/08/10 04:06:14;;;;;;;11.35;9.20;;;20.70;97.50;;;;;;6231819;23;20023;-91
2021/08/10 04:08:45;;;;;;;12.00;9.93;;;20.70;97.80;;;;;;6229806;23;20008;-90
2021/08/10 04:11:11;;;;;;;11.68;9.77;;;20.80;97.70;;;;;;6229249;23;20043;-91
2021/08/10 04:13:42;;;;;;;11.50;10.30;;;20.80;97.60;;;;;;6230306;23;19997;-91
2021/08/10 04:16:27;;;;;;;;;;;;;;;;;;;;;
2021/08/10 04:19:00;;;;;;;11.07;9.98;;;20.90;97.60;;;;;;6256266;23;20043;-91
2021/08/10 04:21:31;;;;;;;10.60;9.63;;;20.90;97.50;;;;;;6229128;23;20008;-91
2021/08/10 04:24:06;;;;;;;11.70;10.52;;;21.00;97.50;;;;;;6230911;23;19997;-91
2021/08/10 04:26:42;;;;;;;10.88;9.88;;;21.00;97.50;;;;;;6228884;23;20043;-91
2021/08/10 04:29:12;;;;;;;9.48;8.52;;;21.00;97.40;;;;;;6228467;23;20015;-91
2021/08/10 04:31:46;;;;;;;9.32;8.48;;;21.10;97.40;;;;;;6230304;23;20008;-91
2021/08/10 04:34:12;;;;;;;10.35;9.50;;;21.10;97.50;;;;;;6230540;23;19996;-91
2021/08/10 04:36:38;;;;;;;10.55;9.45;;;21.20;97.40;;;;;;6229946;23;20007;-91
2021/08/10 04:39:06;;;;;;;10.82;9.75;;;21.20;97.30;;;;;;6230644;23;20019;-90
2021/08/10 04:41:35;;;;;;;12.43;11.18;;;21.30;97.30;;;;;;6228396;23;20035;-91
2021/08/10 04:44:07;;;;;;;12.57;10.68;;;21.30;97.20;;;;;;6229686;23;20000;-91
2021/08/10 04:46:33;;;;;;;11.32;10.20;;;21.30;97.40;;;;;;6229144;23;20015;-90
2021/08/10 04:49:05;;;;;;;11.43;10.35;;;21.30;97.20;;;;;;6255477;23;20007;-90
2021/08/10 04:51:34;;;;;;;11.55;10.40;;;21.30;97.10;;;;;;6230341;23;20000;-91
2021/08/10 04:54:16;;;;;;;11.05;9.95;;;21.40;97.10;;;;;;6228592;23;20071;-91
2021/08/10 04:56:52;;;;;;;10.23;9.20;;;21.50;97.10;;;;;;6228609;23;20031;-90
2021/08/10 04:59:18;;;;;;;12.00;10.82;;;21.50;96.80;;;;;;6254345;23;20004;-90
2021/08/10 05:02:14;;;;;;;11.63;10.43;;;21.60;96.80;;;;;;6230215;23;20031;-92
2021/08/10 05:04:51;;;;;;;10.98;9.75;;;21.70;96.60;;;;;;6229622;23;20023;-91
2021/08/10 05:07:22;;;;;;;10.60;9.60;;;21.80;96.50;;;;;;6227564;23;20451;-92
2021/08/10 05:09:51;;;;;;;12.35;11.05;;;21.80;96.40;;;;;;6228000;23;20008;-92
2021/08/10 05:12:20;;;;;;;13.43;11.13;;;21.80;96.30;;;;;;6228758;23;20059;-90
2021/08/10 05:14:56;;;;;;;11.90;10.68;;;21.90;96.30;;;;;;6229301;23;19996;-91
2021/08/10 05:17:50;;;;;;;;;;;;;;;;;;;;;
2021/08/10 05:20:38;;;;;;;11.48;10.23;;;21.90;96.10;;;;;;6254088;23;20031;-90
2021/08/10 05:23:21;;;;;;;10.77;9.77;;;21.90;96.10;;;;;;6228953;23;20011;-91
2021/08/10 05:25:51;;;;;;;11.38;10.25;;;22.00;95.90;;;;;;6228937;23;20321;-91
2021/08/10 05:28:50;;;;;;;11.60;10.45;;;22.10;95.70;;;;;;6233230;23;20019;-92
2021/08/10 05:31:26;;;;;;;11.65;10.55;;;22.10;95.50;;;;;;6232261;23;20015;-90
2021/08/10 05:34:04;;;;;;;11.30;10.23;;;22.20;95.20;;;;;;6234898;23;20000;-90
2021/08/10 05:36:54;;;;;;;12.05;10.82;;;22.20;95.10;;;;;;6237603;23;20000;-91
2021/08/10 05:39:44;;;;;;;11.98;10.50;;;22.30;94.90;;;;;;6235124;23;20008;-91
2021/08/10 05:42:14;;;;;;;11.10;10.00;;;22.40;94.80;;;;;;6257817;23;20008;-91
2021/08/10 05:44:59;;;;;;;11.27;10.25;;;22.50;94.30;;;;;;6231184;23;20027;-90
2021/08/10 05:47:39;;;;;;;13.48;10.35;;;22.60;93.90;;;;;;6229916;23;20196;-91
2021/08/10 05:50:37;;;;;;;10.85;9.77;;;22.60;93.60;;;;;;6229625;23;20004;-91
2021/08/10 05:53:03;;;;;;;10.45;9.40;;;22.70;93.60;;;;;;6215477;23;20073;-91
2021/08/10 05:55:39;;;;;;;;;;;;;;;;;;;;;
2021/08/10 05:58:16;;;;;;;9.85;8.95;;;22.80;93.30;;;;;;6256104;23;20043;-91
2021/08/10 06:01:07;;;;;;;12.32;11.18;;;22.90;93.20;;;;;;6232021;23;20038;-90
2021/08/10 06:03:38;;;;;;;11.07;9.98;;;23.10;92.50;;;;;;6229462;23;20003;-91
2021/08/10 06:06:11;;;;;;;10.20;9.20;;;23.00;92.10;;;;;;6228826;23;20494;-91
2021/08/10 06:08:42;;;;;;;;;;;23.10;92.30;;;;;;6229865;23;20086;-90
2021/08/10 06:11:10;;;;;;;11.85;9.57;;;23.20;91.50;;;;;;6228979;23;19899;-91
2021/08/10 06:13:45;;;;;;;11.25;8.90;;;23.20;91.40;;;;;;6230330;23;20009;-90
2021/08/10 06:16:18;;;;;;;9.90;9.00;;;23.30;91.30;;;;;;6257999;23;20000;-91
2021/08/10 06:19:04;;;;;;;10.57;9.38;;;23.40;91.10;;;;;;6259373;23;20027;-91
2021/08/10 06:21:40;;;;;;;8.77;7.88;;;23.50;90.90;;;;;;6255301;23;19996;-91
2021/08/10 06:24:32;;;;;;;;;;;;;;;;;;;;;
2021/08/10 06:27:07;;;;;;;9.77;8.77;;;23.80;90.30;;;;;;6255440;23;20042;-92
2021/08/10 06:29:38;;;;;;;9.57;8.75;;;24.00;89.20;;;;;;6254681;23;20474;-92
2021/08/10 06:32:18;;;;;;;;;;;;;;;;;;;;;
2021/08/10 06:34:51;;;;;;;8.25;7.40;;;24.10;87.70;;;;;;6255297;23;20039;-92
2021/08/10 06:37:30;;;;;;;9.13;8.23;;;24.20;87.40;;;;;;6228593;23;20030;-92
2021/08/10 06:40:23;;;;;;;11.07;9.23;;;24.30;87.40;;;;;;6229650;23;20012;-92
2021/08/10 06:42:51;;;;;;;8.93;8.02;;;24.40;85.70;;;;;;6229172;23;20451;-92
2021/08/10 06:45:20;;;;;;;8.55;7.72;;;24.50;86.30;;;;;;6231188;23;20000;-91
2021/08/10 06:47:55;;;;;;;9.10;8.07;;;24.50;85.60;;;;;;6228699;23;20015;-93
2021/08/10 06:50:23;;;;;;;8.77;7.97;;;24.60;85.10;;;;;;6226027;23;20004;-92
2021/08/10 06:52:59;;;;;;;10.38;9.38;;;24.60;84.50;;;;;;6223175;23;20004;-91
2021/08/10 06:55:35;;;;;;;9.15;8.25;;;24.60;84.10;;;;;;6223214;23;20014;-90
2021/08/10 07:01:21;;;;;;;9.25;8.35;;;24.70;83.70;;;;;;6244105;23;20004;-92
2021/08/10 07:03:56;;;;;;;9.60;8.70;;;24.70;84.10;;;;;;6225543;23;20008;-91
2021/08/10 07:06:27;;;;;;;9.25;8.35;;;24.80;83.40;;;;;;6227893;23;20008;-92
2021/08/10 07:09:21;;;;;;;9.60;8.70;;;24.80;83.40;;;;;;6248921;23;20007;-92
2021/08/10 07:14:40;;;;;;;9.35;8.40;;;24.90;82.40;;;;;;6249532;23;20008;-92
2021/08/10 07:20:04;;;;;;;8.57;7.78;;;25.20;82.10;;;;;;6251106;23;20095;-92
2021/08/10 07:23:07;;;;;;;9.18;7.57;;;25.20;81.60;;;;;;6222938;23;20000;-92
2021/08/10 07:29:28;;;;;;;9.02;8.13;;;25.50;81.10;;;;;;6234313;23;20098;-92
2021/08/10 07:50:48;;;;;;;;;;;;;;;;;;;;;
2021/08/10 07:54:03;;;;;;;;;;;;;;;;;;;;;
2021/08/10 08:01:11;;;;;;;;;;;;;;;;;;;;;
2021/08/10 08:15:29;;;;;;;;;;;;;;;;;;;;;
2021/08/10 08:18:45;;;;;;;;;;;;;;;;;;;;;
2021/08/10 08:39:40;;;;;;;;;;;;;;;;;;;;;
2021/08/10 08:43:11;;;;;;;;;;;;;;;;;;;;;
2021/08/10 08:49:34;;;;;;;;;;;;;;;;;;;;;
2021/08/10 08:52:53;;;;;;;7.95;7.22;;;27.20;72.30;;;;;;5818974;24;20070;-92
2021/08/10 08:56:04;;;;;;;7.50;6.75;;;27.30;72.40;;;;;;5844639;24;20065;-94
2021/08/10 08:58:51;;;;;;;;;;;;;;;;;;;;;
2021/08/10 09:02:02;;;;;;;;;;;;;;;;;;;;;
2021/08/10 09:05:06;;;;;;;9.60;8.02;;;27.50;70.40;;;;;;6207205;23;20024;-93
2021/08/10 09:11:06;;;;;;;8.17;7.37;;;27.60;71.10;;;;;;6134907;23;20016;-91
2021/08/10 09:13:33;;;;;;;6.97;6.38;;;27.70;70.30;;;;;;6219123;23;20229;-90
2021/08/10 09:23:06;;;;;;;8.13;7.13;;;27.90;69.40;;;;;;6185783;23;20020;-90
2021/08/10 09:26:08;;;;;;;7.32;6.72;;;27.90;69.10;;;;;;6158915;23;20001;-90
2021/08/10 09:36:08;;;;;;;;;;;;;;;;;;;;;
2021/08/10 09:39:10;;;;;;;7.93;7.03;;;28.30;67.40;;;;;;6053450;23;20535;-92
2021/08/10 09:42:03;;;;;;;8.13;7.32;;;28.30;67.80;;;;;;6155313;23;20006;-92
2021/08/10 09:44:38;;;;;;;8.00;7.20;;;28.20;68.10;;;;;;6156537;23;20409;-92
2021/08/10 09:47:36;;;;;;;8.82;7.90;;;28.20;67.80;;;;;;6121727;23;20006;-92
2021/08/10 09:50:50;;;;;;;;;;;;;;;;;;;;;
2021/08/10 09:53:21;;;;;;;7.65;6.95;;;28.20;68.70;;;;;;6150047;23;20088;-92
2021/08/10 09:56:04;;;;;;;8.07;7.30;;;28.30;68.00;;;;;;6157099;23;20145;-91
2021/08/10 09:59:07;;;;;;;10.20;7.55;;;28.30;69.10;;;;;;6158077;23;20017;-91
2021/08/10 10:01:45;;;;;;;;;;;;;;;;;;;;;
2021/08/10 10:04:22;;;;;;;7.22;6.55;;;28.50;67.30;;;;;;6186801;23;20496;-90
2021/08/10 10:06:57;;;;;;;7.20;6.45;;;28.50;67.10;;;;;;6188066;23;19998;-92
2021/08/10 10:09:33;;;;;;;7.72;7.03;;;28.60;66.60;;;;;;6185930;23;20063;-92
2021/08/10 10:12:24;;;;;;;6.78;6.18;;;28.60;66.60;;;;;;6185544;23;20297;-93
2021/08/10 10:14:55;;;;;;;7.10;6.50;;;28.60;66.60;;;;;;6185643;23;20421;-93
2021/08/10 10:17:27;;;;;;;7.03;6.35;;;28.70;66.60;;;;;;6186448;23;19998;-93
2021/08/10 10:20:10;;;;;;;9.10;7.28;;;28.70;66.40;;;;;;6186778;23;20037;-93
2021/08/10 10:22:37;;;;;;;8.10;6.68;;;28.70;66.80;;;;;;6183971;23;20437;-92
2021/08/10 10:25:06;;;;;;;6.88;6.18;;;28.80;67.30;;;;;;6186788;23;20115;-92
2021/08/10 10:27:43;;;;;;;6.80;6.20;;;28.80;67.10;;;;;;6186255;23;20048;-93
2021/08/10 10:30:20;;;;;;;10.27;6.90;;;28.90;66.70;;;;;;6185694;23;20020;-91
2021/08/10 10:33:02;;;;;;;;;;;;;;;;;;;;;
2021/08/10 10:35:51;;;;;;;;;;;;;;;;;;;;;
2021/08/10 10:38:20;;;;;;;7.35;6.63;;;28.90;67.20;;;;;;6187256;23;20087;-92
2021/08/10 10:41:17;;;;;;;;;;;;;;;;;;;;;
2021/08/10 10:44:36;;;;;;;7.90;7.10;;;28.80;67.40;;;;;;6191221;23;20040;-92
2021/08/10 10:47:25;;;;;;;8.07;7.28;;;28.90;66.60;;;;;;6187992;23;20017;-92
2021/08/10 10:50:00;;;;;;;7.60;6.90;;;28.80;66.40;;;;;;6102605;23;20029;-92
2021/08/10 10:53:08;;;;;;;6.93;6.32;;;28.90;66.50;;;;;;6180826;23;20402;-93
2021/08/10 10:55:53;;;;;;;7.97;7.03;;;28.90;66.10;;;;;;6188620;23;20001;-92
2021/08/10 10:58:46;;;;;;;8.93;6.50;;;28.90;65.90;;;;;;6191100;23;20096;-92
2021/08/10 11:01:32;;;;;;;7.35;6.32;;;29.00;65.80;;;;;;6193943;23;20028;-93
2021/08/10 11:04:53;;;;;;;7.32;6.63;;;29.10;65.60;;;;;;6191656;23;20063;-92
2021/08/10 11:08:08;;;;;;;7.13;6.47;;;29.10;64.70;;;;;;6171109;23;20398;-92
2021/08/10 11:17:36;;;;;;;6.30;5.65;;;29.20;64.60;;;;;;6160023;23;20005;-92
2021/08/10 11:20:54;;;;;;;6.32;5.60;;;29.30;64.50;;;;;;6191541;23;20021;-91
2021/08/10 11:23:31;;;;;;;10.32;5.60;;;29.40;64.50;;;;;;6190548;23;20005;-91
2021/08/10 11:29:51;;;;;;;7.40;6.35;;;29.40;63.90;;;;;;6136210;23;20060;-91
2021/08/10 12:17:22;;;;;;;;;;;;;;;;;;;;;
2021/08/10 12:23:44;;;;;;;7.25;6.40;;;29.80;63.20;;;;;;6158906;23;20013;-92
2021/08/10 12:29:42;;;;;;;6.78;5.93;;;30.00;62.50;;;;;;6186633;23;20439;-91
2021/08/10 12:32:13;;;;;;;8.13;6.32;;;30.20;62.00;;;;;;6232355;23;20324;-93
2021/08/10 12:34:41;;;;;;;5.88;5.28;;;30.40;62.20;;;;;;6221518;23;20046;-92
2021/08/10 12:37:30;;;;;;;6.70;6.00;;;30.60;62.40;;;;;;6221975;23;20004;-93
2021/08/10 12:42:48;;;;;;;7.85;5.60;;;31.10;61.40;;;;;;6250174;23;20471;-94
2021/08/10 12:45:14;;;;;;;6.10;5.30;;;31.30;61.50;;;;;;6198566;23;20012;-93
2021/08/10 12:51:06;;;;;;;5.28;4.78;;;31.80;59.50;;;;;;6128955;23;20038;-92
2021/08/10 12:57:00;;;;;;;6.38;5.00;;;32.20;59.00;;;;;;6126843;23;20013;-93
2021/08/10 13:02:52;;;;;;;5.78;5.20;;;32.50;58.60;;;;;;6126389;23;20342;-93
2021/08/10 13:08:54;;;;;;;5.25;4.75;;;33.10;55.10;;;;;;6125439;23;20517;-93
2021/08/10 13:11:23;;;;;;;4.90;4.50;;;33.20;51.50;;;;;;6206767;23;20080;-92
2021/08/10 13:13:49;;;;;;;6.07;4.93;;;33.30;52.30;;;;;;6218908;23;20070;-92
2021/08/10 13:23:24;;;;;;;4.97;4.47;;;33.80;49.90;;;;;;6244106;23;20015;-93
2021/08/10 13:29:39;;;;;;;8.50;4.22;;;34.30;47.80;;;;;;6214533;23;20055;-94
2021/08/10 13:38:51;;;;;;;5.90;4.40;;;34.70;46.90;;;;;;6158221;23;20045;-94
2021/08/10 13:41:23;;;;;;;4.55;4.15;;;34.60;47.70;;;;;;6128680;23;20109;-93
2021/08/10 13:43:54;;;;;;;;;;;34.60;48.30;;;;;;6154692;23;20100;-93
2021/08/10 13:46:22;;;;;;;4.80;4.32;;;34.90;46.20;;;;;;6154377;23;19912;-92
2021/08/10 13:48:48;;;;;;;6.25;4.35;;;35.10;47.00;;;;;;6129860;23;20460;-93
2021/08/10 13:51:14;;;;;;;5.85;4.70;;;35.00;46.70;;;;;;6129315;23;20002;-92
2021/08/10 13:53:41;;;;;;;4.32;4.03;;;34.90;46.90;;;;;;6130654;23;20005;-92
2021/08/10 13:56:07;;;;;;;5.22;4.30;;;34.90;47.00;;;;;;6131046;23;20008;-93
2021/08/10 13:58:36;;;;;;;5.30;4.40;;;34.90;47.30;;;;;;6136886;23;20077;-93
2021/08/10 14:01:04;;;;;;;6.78;4.85;;;34.90;46.90;;;;;;6138700;23;20092;-93
2021/08/10 14:03:34;;;;;;;5.20;4.43;;;35.00;46.60;;;;;;6162194;23;19998;-92
2021/08/10 14:06:03;;;;;;;4.35;3.95;;;34.90;47.00;;;;;;6154984;23;20447;-93
2021/08/10 14:09:18;;;;;;;7.25;4.43;;;35.00;47.00;;;;;;6224986;23;20288;-94
2021/08/10 14:11:56;;;;;;;5.07;4.53;;;35.10;46.70;;;;;;6196709;23;20012;-95
2021/08/10 14:14:48;;;;;;;7.65;4.70;;;35.00;47.60;;;;;;6211244;23;20036;-96
2021/08/10 14:17:24;;;;;;;;;;;;;;;;;;;;;
2021/08/10 14:23:24;;;;;;;5.03;4.53;;;34.90;47.50;;;;;;6204730;23;20016;-95
2021/08/10 14:26:21;;;;;;;;;;;;;;;;;;;;;
2021/08/10 14:28:49;;;;;;;4.55;4.18;;;35.10;47.40;;;;;;6263634;22;20024;-96
2021/08/10 14:31:26;;;;;;;4.65;4.25;;;35.40;47.00;;;;;;6244666;23;20020;-96
2021/08/10 14:37:31;;;;;;;4.90;4.38;;;35.80;45.30;;;;;;6147461;23;20017;-95
2021/08/10 14:40:06;;;;;;;5.15;4.75;;;36.00;45.80;;;;;;6123339;23;20050;-95
2021/08/10 14:42:43;;;;;;;5.00;4.20;;;36.10;44.40;;;;;;6124991;23;20014;-96
2021/08/10 14:45:32;;;;;;;5.93;4.70;;;36.00;44.60;;;;;;6124373;23;19993;-95
2021/08/10 14:47:58;;;;;;;4.35;4.05;;;35.80;44.10;;;;;;6146154;23;20013;-95
2021/08/10 14:50:24;;;;;;;4.25;3.85;;;35.80;45.20;;;;;;6109920;23;20006;-94
2021/08/10 14:52:50;;;;;;;4.28;3.88;;;35.90;45.40;;;;;;6105322;23;19998;-93
2021/08/10 14:55:16;;;;;;;5.57;4.80;;;36.10;45.40;;;;;;6106563;23;20018;-95
2021/08/10 14:57:42;;;;;;;4.85;4.45;;;36.20;45.10;;;;;;6104768;23;20030;-95
2021/08/10 15:00:19;;;;;;;;;;;;;;;;;;;;;
2021/08/10 15:02:56;;;;;;;6.85;4.43;;;36.10;45.10;;;;;;6140382;23;20021;-95
2021/08/10 15:05:22;;;;;;;4.85;4.35;;;36.10;45.00;;;;;;6198849;23;20000;-95
2021/08/10 15:08:00;;;;;;;4.28;3.90;;;36.00;45.00;;;;;;6230729;23;20004;-96
2021/08/10 15:14:26;;;;;;;5.28;4.78;;;35.90;44.70;;;;;;6102870;23;20344;-95
2021/08/10 15:18:18;;;;;;;;;;;;;;;;;;;;;
2021/08/10 15:20:34;;;;;;;5.47;4.13;;;35.70;44.90;;;;;;6205888;23;20015;-93
2021/08/10 15:23:05;;;;;;;5.07;4.63;;;35.60;46.10;;;;;;6225102;23;20076;-95
2021/08/10 15:26:09;;;;;;;5.30;4.50;;;35.70;45.30;;;;;;6256678;23;20018;-96
2021/08/10 15:29:25;;;;;;;5.93;4.43;;;35.50;45.50;;;;;;6243894;22;20071;-96
2021/08/10 15:34:58;;;;;;;5.22;4.72;;;35.30;46.10;;;;;;6270006;23;20014;-96
2021/08/10 15:37:46;;;;;;;8.10;4.28;;;35.20;46.40;;;;;;6267064;23;20008;-95
2021/08/10 15:40:20;;;;;;;4.53;4.13;;;35.10;46.50;;;;;;6239531;23;20023;-95
2021/08/10 15:42:52;;;;;;;5.57;4.60;;;35.00;46.80;;;;;;6233314;23;20008;-96
2021/08/10 15:45:23;;;;;;;5.18;4.68;;;35.00;47.00;;;;;;6240399;23;20000;-95
2021/08/10 15:48:09;;;;;;;4.82;4.32;;;35.00;47.00;;;;;;6255001;23;20008;-94
2021/08/10 15:50:44;;;;;;;4.85;4.43;;;34.90;47.40;;;;;;6216110;23;20004;-95
2021/08/10 15:53:37;;;;;;;4.63;4.22;;;35.00;47.90;;;;;;6219392;23;19997;-96
2021/08/10 15:56:15;;;;;;;4.70;3.85;;;35.10;48.60;;;;;;6271935;23;19997;-96
2021/08/10 15:58:44;;;;;;;4.25;3.85;;;35.00;48.70;;;;;;6235430;23;20073;-96
2021/08/10 16:01:35;;;;;;;4.18;3.83;;;34.90;49.00;;;;;;6242140;23;20047;-95
2021/08/10 16:04:09;;;;;;;5.32;4.82;;;35.00;49.20;;;;;;6245654;23;20008;-94
2021/08/10 16:06:37;;;;;;;5.38;4.88;;;34.80;48.90;;;;;;6246316;23;20055;-94
2021/08/10 16:09:03;;;;;;;7.03;5.35;;;34.60;49.10;;;;;;6246742;22;20011;-95
2021/08/10 16:11:31;;;;;;;5.15;4.55;;;34.40;49.50;;;;;;6245802;23;19984;-93
2021/08/10 16:14:09;;;;;;;5.93;4.93;;;34.20;49.70;;;;;;6245970;23;20024;-96
2021/08/10 16:16:35;;;;;;;5.60;5.00;;;33.90;49.90;;;;;;6272850;22;20007;-96
2021/08/10 16:19:12;;;;;;;5.60;5.10;;;33.70;50.20;;;;;;6244598;23;20075;-96
2021/08/10 16:21:38;;;;;;;6.50;5.18;;;33.50;50.30;;;;;;6244293;23;20015;-96
2021/08/10 16:24:11;;;;;;;5.57;5.07;;;33.20;50.70;;;;;;6245949;23;19997;-96
2021/08/10 16:26:46;;;;;;;7.15;5.05;;;32.80;51.20;;;;;;6245775;23;20078;-96
2021/08/10 16:29:22;;;;;;;5.00;4.60;;;32.30;51.80;;;;;;6242472;22;20030;-95
2021/08/10 16:31:53;;;;;;;5.63;5.00;;;31.80;53.00;;;;;;6242287;23;20007;-96
2021/08/10 16:34:19;;;;;;;6.93;5.38;;;31.20;53.90;;;;;;6236839;23;20014;-95
2021/08/10 16:36:45;;;;;;;8.18;5.63;;;30.80;54.80;;;;;;6242494;23;20001;-95
2021/08/10 16:39:13;;;;;;;5.88;5.38;;;30.50;56.10;;;;;;6239841;23;20080;-95
2021/08/10 16:41:41;;;;;;;5.30;4.80;;;30.10;56.80;;;;;;6241805;23;20006;-95
2021/08/10 16:44:23;;;;;;;5.60;5.10;;;29.80;57.50;;;;;;6240712;23;20000;-96
2021/08/10 16:46:51;;;;;;;5.43;4.93;;;29.50;60.00;;;;;;6260743;22;20020;-96
2021/08/10 16:49:21;;;;;;;7.43;5.50;;;29.30;59.10;;;;;;6298620;22;20023;-96
2021/08/10 16:51:49;;;;;;;6.53;5.68;;;29.00;59.90;;;;;;6298571;22;20000;-96
2021/08/10 16:54:15;;;;;;;6.50;5.90;;;28.90;60.50;;;;;;6275263;22;20007;-95
2021/08/10 16:56:41;;;;;;;6.28;5.68;;;28.70;61.20;;;;;;6299190;22;19995;-96
2021/08/10 16:59:10;;;;;;;7.40;5.38;;;28.60;61.80;;;;;;6297189;22;20011;-95
2021/08/10 17:01:38;;;;;;;5.50;4.95;;;28.50;62.20;;;;;;6299697;22;20007;-96
2021/08/10 17:04:05;;;;;;;6.30;5.70;;;28.30;62.20;;;;;;6310765;22;20021;-96
2021/08/10 17:06:31;;;;;;;6.72;6.03;;;28.20;63.30;;;;;;6301457;22;20011;-96
2021/08/10 17:09:02;;;;;;;7.03;6.43;;;28.10;64.20;;;;;;6299291;22;20014;-96
2021/08/10 17:11:33;;;;;;;6.78;6.18;;;28.00;64.80;;;;;;6300370;22;20586;-96
2021/08/10 17:14:02;;;;;;;6.40;5.80;;;27.90;65.10;;;;;;6304011;22;20007;-96
2021/08/10 17:16:29;;;;;;;7.47;6.05;;;27.70;65.00;;;;;;6300133;22;19979;-96
2021/08/10 17:19:00;;;;;;;6.25;5.65;;;27.60;65.50;;;;;;6300837;22;20011;-96
2021/08/10 17:21:25;;;;;;;6.55;5.95;;;27.60;65.80;;;;;;6303857;22;20010;-96
2021/08/10 17:23:51;;;;;;;8.10;6.47;;;27.50;65.80;;;;;;6303379;22;19999;-96